createdAt,value
2022-08-09T16:00:39.209Z,1152.00
2022-08-09T16:01:39.169Z,1140.00
2022-08-09T16:04:23.297Z,1100.00
2022-08-09T16:05:23.164Z,1088.00
2022-08-09T16:06:32.644Z,1076.00
2022-08-09T16:08:29.529Z,1060.00
2022-08-09T16:09:16.050Z,1048.00
2022-08-09T16:11:08.996Z,1024.00
2022-08-09T16:12:08.967Z,1008.00
2022-08-09T16:14:06.813Z,992.00
2022-08-09T16:15:01.877Z,984.00
2022-08-09T16:16:54.821Z,956.00
2022-08-09T16:17:54.800Z,952.00
2022-08-09T16:19:49.657Z,936.00
2022-08-09T16:20:47.708Z,920.00
2022-08-09T16:22:42.310Z,900.00
2022-08-09T16:23:41.095Z,892.00
2022-08-09T16:25:40.375Z,872.00
2022-08-09T16:26:36.462Z,856.00
2022-08-09T16:28:27.021Z,840.00
2022-08-09T16:29:37.110Z,828.00
2022-08-09T16:31:19.943Z,804.00
2022-08-09T16:32:34.433Z,788.00
2022-08-09T16:34:13.355Z,772.00
2022-08-09T16:35:19.095Z,764.00
2022-08-09T16:37:06.282Z,736.00
2022-08-09T16:38:06.260Z,728.00
2022-08-09T16:40:04.793Z,716.00
2022-08-09T16:40:59.282Z,700.00
2022-08-09T16:42:52.618Z,680.00
2022-08-09T16:43:52.593Z,672.00
2022-08-09T16:45:46.048Z,660.00
2022-08-09T16:46:55.012Z,656.00
2022-08-09T16:48:50.462Z,652.00
2022-08-09T16:50:32.144Z,644.00
2022-08-09T16:50:39.193Z,636.00
2022-08-09T16:52:31.935Z,624.00
2022-08-09T16:53:34.226Z,620.00
2022-08-09T16:55:25.269Z,604.00
2022-08-09T16:56:25.472Z,596.00
2022-08-09T16:58:18.702Z,576.00
2022-08-09T16:59:18.675Z,572.00
2022-08-09T17:01:13.661Z,556.00
2022-08-09T17:02:12.086Z,548.00
2022-08-09T17:04:05.310Z,516.00
2022-08-09T17:05:05.010Z,496.00
2022-08-09T17:08:44.437Z,400.00
2022-08-09T17:08:44.646Z,480.00
2022-08-09T17:09:51.367Z,380.00
2022-08-09T17:10:51.850Z,392.00
2022-08-09T17:12:44.787Z,444.00
2022-08-09T17:13:45.087Z,440.00
2022-08-09T17:15:59.166Z,432.00
2022-08-09T17:16:38.562Z,424.00
2022-08-09T17:18:31.620Z,416.00
2022-08-09T17:20:04.986Z,408.00
2022-08-09T17:21:25.522Z,388.00
2022-08-09T17:22:30.919Z,384.00
2022-08-09T17:24:28.371Z,368.00
2022-08-09T17:25:17.993Z,364.00
2022-08-09T17:27:15.429Z,348.00
2022-08-09T17:28:11.400Z,336.00
2022-08-09T17:30:06.698Z,320.00
2022-08-09T17:31:04.319Z,312.00
2022-08-09T17:33:00.590Z,292.00
2022-08-09T17:33:57.246Z,288.00
2022-08-09T17:35:06.354Z,272.00
2022-08-09T17:36:53.557Z,108.00
2022-08-09T17:38:02.453Z,124.00
2022-08-09T17:39:53.267Z,104.00
2022-08-09T17:40:47.195Z,136.00
2022-08-09T17:42:41.317Z,136.00
2022-08-09T17:43:37.314Z,96.00
2022-08-09T17:45:37.555Z,128.00
2022-08-09T17:46:33.957Z,160.00
2022-08-09T17:47:30.087Z,160.00
2022-08-09T17:49:22.852Z,152.00
2022-08-09T17:50:24.932Z,148.00
2022-08-09T17:52:22.257Z,136.00
2022-08-09T17:53:21.774Z,128.00
2022-08-09T17:55:09.186Z,116.00
2022-08-09T17:56:09.580Z,112.00
2022-08-09T17:58:03.283Z,100.00
2022-08-09T17:59:02.997Z,96.00
2022-08-09T18:00:56.715Z,84.00
2022-08-09T18:02:07.433Z,84.00
2022-08-09T18:03:48.460Z,80.00
2022-08-09T18:04:48.436Z,72.00
2022-08-09T18:06:49.708Z,72.00
2022-08-09T18:07:48.593Z,68.00
2022-08-09T18:09:40.012Z,64.00
2022-08-09T18:10:34.755Z,60.00
2022-08-09T18:12:05.890Z,60.00
2022-08-09T18:13:43.704Z,52.00
2022-08-09T18:14:28.164Z,48.00
2022-08-09T18:16:07.991Z,48.00
2022-08-09T18:17:27.123Z,44.00
2022-08-09T18:18:25.805Z,44.00
2022-08-09T18:20:56.931Z,40.00
2022-08-09T18:21:22.784Z,36.00
2022-08-09T18:22:17.168Z,32.00
2022-08-09T18:24:10.480Z,28.00
2022-08-09T18:25:07.905Z,24.00
2022-08-09T18:27:01.288Z,24.00
2022-08-09T18:28:04.926Z,24.00
2022-08-09T18:30:40.620Z,20.00
2022-08-09T18:30:53.733Z,16.00
2022-08-09T18:32:47.181Z,16.00
2022-08-09T18:33:53.596Z,16.00
2022-08-09T18:35:58.273Z,12.00
2022-08-09T18:36:40.570Z,12.00
2022-08-09T18:37:47.690Z,12.00
2022-08-09T18:39:34.032Z,8.00
2022-08-09T18:40:33.979Z,8.00
2022-08-09T18:42:29.241Z,8.00
2022-08-09T18:43:27.157Z,4.00
2022-08-09T18:45:21.730Z,4.00
2022-08-09T18:46:48.423Z,4.00
2022-08-09T18:48:12.788Z,0.00
2022-08-09T18:49:12.765Z,4.00
2022-08-09T18:51:05.705Z,4.00
2022-08-09T18:52:05.686Z,0.00
2022-08-09T18:53:05.678Z,4.00
2022-08-09T18:54:58.619Z,4.00
2022-08-09T18:56:05.833Z,0.00
2022-08-09T18:57:52.025Z,4.00
2022-08-09T18:58:55.637Z,0.00
2022-08-09T19:00:45.445Z,0.00
2022-08-09T19:01:46.295Z,4.00
2022-08-09T19:04:01.599Z,0.00
2022-08-09T19:04:38.851Z,0.00
2022-08-09T19:06:32.291Z,0.00
2022-08-09T19:07:32.270Z,0.00
2022-08-09T19:10:13.118Z,0.00
2022-08-09T19:10:25.169Z,0.00
2022-08-09T19:12:20.814Z,0.00
2022-08-09T19:13:23.011Z,0.00
2022-08-09T19:14:29.048Z,0.00
2022-08-09T19:16:13.033Z,0.00
2022-08-09T19:17:11.483Z,0.00
2022-08-09T19:19:19.287Z,0.00
2022-08-09T19:20:04.908Z,0.00
2022-08-09T19:22:04.569Z,0.00
2022-08-09T19:22:57.806Z,0.00
2022-08-09T19:25:07.643Z,0.00
2022-08-09T19:26:02.114Z,0.00
2022-08-09T19:27:43.658Z,0.00
2022-08-09T19:28:48.619Z,0.00
2022-08-09T19:30:22.670Z,0.00
2022-08-09T19:31:44.328Z,0.00
2022-08-09T19:32:37.339Z,0.00
2022-08-09T19:34:29.991Z,0.00
2022-08-09T19:35:29.958Z,0.00
2022-08-09T19:37:23.455Z,0.00
2022-08-09T19:38:23.435Z,0.00
2022-08-09T19:40:19.527Z,0.00
2022-08-09T19:41:33.008Z,0.00
2022-08-09T19:43:57.935Z,0.00
2022-08-09T19:44:10.255Z,0.00
2022-08-09T19:46:04.106Z,0.00
2022-08-09T19:47:03.652Z,0.00
2022-08-09T19:49:02.079Z,0.00
2022-08-09T19:50:05.190Z,0.00
2022-08-09T19:51:55.257Z,0.00
2022-08-09T19:52:52.190Z,0.00
2022-08-09T19:54:42.901Z,0.00
2022-08-09T19:56:02.226Z,0.00
2022-08-09T19:57:36.368Z,0.00
2022-08-09T19:58:36.349Z,0.00
2022-08-09T20:00:30.782Z,0.00
2022-08-09T20:01:47.730Z,0.00
2022-08-09T20:04:11.492Z,0.00
2022-08-09T20:04:36.346Z,0.00
2022-08-09T20:06:23.571Z,0.00
2022-08-09T20:07:20.890Z,0.00
2022-08-09T20:09:08.477Z,0.00
2022-08-09T20:10:17.832Z,0.00
2022-08-09T20:11:08.450Z,0.00
2022-08-09T20:13:01.364Z,0.00
2022-08-09T20:14:01.338Z,0.00
2022-08-09T20:16:33.142Z,0.00
2022-08-09T20:16:55.162Z,0.00
2022-08-09T20:17:55.051Z,0.00
2022-08-09T20:19:54.691Z,0.00
2022-08-09T20:20:47.644Z,0.00
2022-08-09T20:22:44.557Z,0.00
2022-08-09T20:23:40.559Z,0.00
2022-08-09T20:26:25.117Z,0.00
2022-08-09T20:27:25.081Z,0.00
2022-08-09T20:29:19.114Z,0.00
2022-08-09T20:30:21.665Z,0.00
2022-08-09T20:32:29.055Z,0.00
2022-08-09T20:33:10.891Z,0.00
2022-08-09T20:35:03.928Z,0.00
2022-08-09T20:36:03.801Z,0.00
2022-08-09T20:38:20.965Z,0.00
2022-08-09T20:39:28.486Z,0.00
2022-08-09T20:40:16.307Z,0.00
2022-08-09T20:41:50.274Z,0.00
2022-08-09T20:43:00.230Z,0.00
2022-08-09T20:44:50.660Z,0.00
2022-08-09T20:45:59.071Z,0.00
2022-08-09T20:47:48.511Z,0.00
2022-08-09T20:48:36.572Z,0.00
2022-08-09T20:50:47.930Z,0.00
2022-08-09T20:51:29.480Z,0.00
2022-08-09T20:53:36.281Z,0.00
2022-08-09T20:54:22.455Z,0.00
2022-08-09T20:56:19.977Z,0.00
2022-08-09T20:57:15.365Z,0.00
2022-08-09T20:59:08.286Z,0.00
2022-08-09T21:00:31.224Z,0.00
2022-08-09T21:02:01.218Z,0.00
2022-08-09T21:03:01.196Z,0.00
2022-08-09T21:05:48.261Z,0.00
2022-08-09T21:05:59.577Z,0.00
2022-08-09T21:06:54.076Z,0.00
2022-08-09T21:08:47.003Z,0.00
2022-08-09T21:09:56.643Z,0.00
2022-08-09T21:12:40.380Z,0.00
2022-08-09T21:14:36.967Z,0.00
2022-08-09T21:15:34.800Z,0.00
2022-08-09T21:18:11.855Z,0.00
2022-08-09T21:18:27.582Z,0.00
2022-08-09T21:20:19.432Z,0.00
2022-08-09T21:21:20.112Z,0.00
2022-08-09T21:22:36.021Z,0.00
2022-08-09T21:25:04.138Z,0.00
2022-08-09T21:26:04.099Z,0.00
2022-08-09T21:27:57.034Z,0.00
2022-08-09T21:28:57.311Z,0.00
2022-08-09T21:29:57.002Z,0.00
2022-08-09T21:31:49.981Z,0.00
2022-08-09T21:32:49.915Z,0.00
2022-08-09T21:34:48.205Z,0.00
2022-08-09T21:35:52.445Z,0.00
2022-08-09T21:37:47.069Z,0.00
2022-08-09T21:38:36.212Z,0.00
2022-08-09T21:40:30.880Z,0.00
2022-08-09T21:41:59.809Z,0.00
2022-08-09T21:43:55.999Z,0.00
2022-08-09T21:44:34.427Z,0.00
2022-08-09T21:45:22.582Z,0.00
2022-08-09T21:47:18.186Z,0.00
2022-08-09T21:48:15.484Z,0.00
2022-08-09T21:50:08.427Z,0.00
2022-08-09T21:51:14.010Z,0.00
2022-08-09T21:53:01.345Z,0.00
2022-08-09T21:54:01.312Z,0.00
2022-08-09T21:55:54.744Z,0.00
2022-08-09T21:56:55.085Z,0.00
2022-08-09T21:58:47.679Z,0.00
2022-08-09T21:59:47.625Z,0.00
